Time;durP1;ratioP1;P1;durP2;ratioP2;P2;SDS_P1;SDS_P2;PMS_P1;PMS_P2;Temp;Humidity;BMP_temperature;BMP_pressure;BME280_temperature;BME280_humidity;BME280_pressure;Samples;Min_cycle;Max_cycle;Signal;HPM_P1;HPM_P2
2022/05/22 00:01:22;;;;;;;18.02;16.25;;;;;;;;;;10099652;29;20429;-92
2022/05/22 00:06:24;;;;;;;19.50;17.35;;;;;;;;;;10100207;29;20450;-91
2022/05/22 00:11:27;;;;;;;19.35;17.33;;;;;;;;;;10101867;29;20437;-92
2022/05/22 00:16:40;;;;;;;19.33;17.42;;;;;;;;;;10099721;29;21017;-92
2022/05/22 00:21:45;;;;;;;18.98;17.08;;;;;;;;;;10100167;29;20843;-92
2022/05/22 00:27:12;;;;;;;19.33;17.15;;;;;;;;;;10099955;29;20422;-91
2022/05/22 00:32:20;;;;;;;19.35;17.45;;;;;;;;;;10100207;29;20441;-92
2022/05/22 00:37:24;;;;;;;20.02;18.02;;;;;;;;;;10062340;29;20506;-92
2022/05/22 00:42:32;;;;;;;20.08;18.20;;;;;;;;;;10068312;29;21087;-93
2022/05/22 00:47:34;;;;;;;21.03;19.03;;;;;;;;;;10061556;29;20795;-91
2022/05/22 00:52:45;;;;;;;20.88;18.77;;;;;;;;;;10061454;29;20525;-92
2022/05/22 00:57:55;;;;;;;23.43;18.80;;;;;;;;;;10061334;29;20510;-92
2022/05/22 01:08:19;;;;;;;22.33;20.13;;;;;;;;;;10064302;29;20403;-91
2022/05/22 01:13:42;;;;;;;25.33;22.63;;;;;;;;;;10060587;29;20464;-92
2022/05/22 01:18:46;;;;;;;25.50;23.07;;;;;;;;;;10057530;29;20518;-92
2022/05/22 01:23:57;;;;;;;26.17;22.20;;;;;;;;;;10060309;29;20506;-92
2022/05/22 01:28:59;;;;;;;25.40;22.10;;;;;;;;;;10062449;29;20527;-92
2022/05/22 01:34:01;;;;;;;23.10;20.67;;;;;;;;;;10073667;29;20436;-92
2022/05/22 01:39:10;;;;;;;20.40;18.30;;;;;;;;;;10109461;29;20428;-91
2022/05/22 01:44:12;;;;;;;20.15;17.95;;;;;;;;;;10098044;29;20910;-92
2022/05/22 01:49:14;;;;;;;19.05;16.58;;;;;;;;;;10097562;29;20436;-92
2022/05/22 01:54:18;;;;;;;18.35;16.60;;;;;;;;;;10097659;29;20987;-92
2022/05/22 01:59:19;;;;;;;19.60;17.48;;;;;;;;;;10098533;29;20492;-92
2022/05/22 02:04:24;;;;;;;19.88;17.52;;;;;;;;;;10109990;29;20500;-92
2022/05/22 02:09:51;;;;;;;20.65;16.92;;;;;;;;;;10118624;29;20782;-92
2022/05/22 02:14:53;;;;;;;19.10;17.10;;;;;;;;;;10096720;29;20425;-92
2022/05/22 02:19:57;;;;;;;18.67;16.77;;;;;;;;;;10125709;29;20595;-92
2022/05/22 02:30:33;;;;;;;19.02;17.23;;;;;;;;;;10123535;29;20433;-92
2022/05/22 02:35:42;;;;;;;18.73;16.92;;;;;;;;;;10124746;29;20432;-92
2022/05/22 02:40:46;;;;;;;20.13;18.02;;;;;;;;;;10124841;29;20444;-92
2022/05/22 02:45:48;;;;;;;20.13;18.03;;;;;;;;;;10124743;29;20449;-92
2022/05/22 02:50:50;;;;;;;20.00;18.00;;;;;;;;;;10124452;29;20432;-92
2022/05/22 02:56:00;;;;;;;19.60;17.60;;;;;;;;;;10124391;29;21040;-92
2022/05/22 03:01:06;;;;;;;19.83;17.83;;;;;;;;;;10124081;29;20766;-91
2022/05/22 03:11:35;;;;;;;19.95;17.85;;;;;;;;;;10123423;29;20429;-92
2022/05/22 03:16:38;;;;;;;19.00;17.20;;;;;;;;;;10124419;29;20452;-92
2022/05/22 03:21:43;;;;;;;18.20;16.40;;;;;;;;;;10123015;29;20429;-92
2022/05/22 03:27:04;;;;;;;18.85;17.02;;;;;;;;;;10123131;29;20417;-91
2022/05/22 03:32:08;;;;;;;19.92;18.10;;;;;;;;;;10105296;29;20434;-92
2022/05/22 03:37:26;;;;;;;20.45;18.10;;;;;;;;;;10098840;29;20417;-92
2022/05/22 03:42:29;;;;;;;20.73;18.73;;;;;;;;;;10123563;29;20425;-92
2022/05/22 03:47:31;;;;;;;21.42;19.33;;;;;;;;;;10123093;29;20405;-92
2022/05/22 03:52:47;;;;;;;21.30;19.10;;;;;;;;;;10123502;29;20664;-91
2022/05/22 03:58:03;;;;;;;21.95;19.75;;;;;;;;;;10123743;29;20425;-90
2022/05/22 04:03:05;;;;;;;24.73;19.85;;;;;;;;;;10105425;29;20514;-92
2022/05/22 04:08:16;;;;;;;21.42;19.33;;;;;;;;;;10100866;29;20517;-92
2022/05/22 04:13:25;;;;;;;21.77;19.50;;;;;;;;;;10101912;29;20435;-92
2022/05/22 04:18:33;;;;;;;21.90;19.87;;;;;;;;;;10101382;29;20498;-92
2022/05/22 04:28:59;;;;;;;20.55;18.55;;;;;;;;;;10100678;29;20859;-92
2022/05/22 04:34:00;;;;;;;19.50;17.60;;;;;;;;;;10099103;29;20429;-92
2022/05/22 04:39:05;;;;;;;19.83;17.88;;;;;;;;;;10101986;29;20503;-92
2022/05/22 04:44:23;;;;;;;20.38;18.15;;;;;;;;;;10100463;29;20428;-92
2022/05/22 04:54:47;;;;;;;19.50;17.52;;;;;;;;;;10099347;29;20429;-91
2022/05/22 05:00:02;;;;;;;18.45;16.52;;;;;;;;;;10105136;29;20906;-92
2022/05/22 05:05:08;;;;;;;17.73;15.93;;;;;;;;;;10099012;29;20453;-92
2022/05/22 05:10:11;;;;;;;17.83;16.00;;;;;;;;;;10100990;29;20881;-92
2022/05/22 05:15:24;;;;;;;17.38;15.63;;;;;;;;;;10100335;29;20505;-92
2022/05/22 05:20:28;;;;;;;17.30;15.70;;;;;;;;;;10100001;29;20426;-92
2022/05/22 05:25:30;;;;;;;15.00;13.48;;;;;;;;;;10100537;29;20443;-92
2022/05/22 05:30:39;;;;;;;15.60;14.07;;;;;;;;;;10100405;29;20525;-92
2022/05/22 05:35:41;;;;;;;14.60;13.07;;;;;;;;;;10099114;29;20501;-92
2022/05/22 05:41:05;;;;;;;15.47;13.80;;;;;;;;;;10101966;29;20423;-92
2022/05/22 05:46:20;;;;;;;15.38;13.88;;;;;;;;;;10101771;29;20421;-93
2022/05/22 05:51:39;;;;;;;14.83;12.63;;;;;;;;;;10103833;29;20908;-92
2022/05/22 05:56:49;;;;;;;16.48;14.75;;;;;;;;;;10107564;29;20447;-92
2022/05/22 06:01:59;;;;;;;15.25;13.65;;;;;;;;;;10105715;29;20417;-91
2022/05/22 06:07:16;;;;;;;16.85;14.32;;;;;;;;;;10104912;29;20509;-92
2022/05/22 06:12:18;;;;;;;16.80;15.10;;;;;;;;;;10093938;29;20466;-92
2022/05/22 06:17:39;;;;;;;16.87;15.10;;;;;;;;;;10105230;29;20458;-92
2022/05/22 06:22:42;;;;;;;15.52;14.07;;;;;;;;;;10104523;29;20445;-92
2022/05/22 06:27:45;;;;;;;15.67;14.10;;;;;;;;;;10103154;29;20429;-92
2022/05/22 06:33:00;;;;;;;15.65;14.15;;;;;;;;;;10103406;29;20940;-92
2022/05/22 06:39:49;;;;;;;15.32;13.80;;;;;;;;;;10104808;29;20417;-91
2022/05/22 06:43:46;;;;;;;14.30;12.00;;;;;;;;;;10104511;29;20737;-92
2022/05/22 06:48:57;;;;;;;13.55;12.25;;;;;;;;;;10104141;29;20506;-92
2022/05/22 06:53:59;;;;;;;13.13;11.60;;;;;;;;;;10105990;29;20534;-91
2022/05/22 06:59:04;;;;;;;13.95;11.95;;;;;;;;;;10106085;29;20425;-91
2022/05/22 07:04:11;;;;;;;10.95;8.85;;;;;;;;;;10103859;29;20444;-92
2022/05/22 07:09:12;;;;;;;8.65;7.75;;;;;;;;;;10101827;29;20421;-92
2022/05/22 07:14:15;;;;;;;9.00;7.10;;;;;;;;;;10103235;29;21096;-92
2022/05/22 07:19:21;;;;;;;10.10;8.40;;;;;;;;;;10100435;29;20446;-91
2022/05/22 07:24:26;;;;;;;12.67;8.87;;;;;;;;;;10106102;29;20512;-91
2022/05/22 07:29:28;;;;;;;9.13;8.23;;;;;;;;;;10105245;29;20845;-92
2022/05/22 07:34:35;;;;;;;13.45;9.60;;;;;;;;;;10102037;29;20961;-91
2022/05/22 07:39:37;;;;;;;12.07;9.60;;;;;;;;;;10102681;29;20546;-92
2022/05/22 07:44:40;;;;;;;10.75;9.05;;;;;;;;;;10101608;29;20497;-91
2022/05/22 07:55:18;;;;;;;9.77;8.60;;;;;;;;;;10101751;29;20811;-91
2022/05/22 08:00:22;;;;;;;11.02;8.65;;;;;;;;;;10102187;29;20501;-92
2022/05/22 08:05:37;;;;;;;10.03;8.70;;;;;;;;;;10100752;29;20508;-91
2022/05/22 08:10:46;;;;;;;11.27;7.87;;;;;;;;;;10104460;29;20483;-92
2022/05/22 08:15:56;;;;;;;9.70;7.75;;;;;;;;;;10100625;29;20510;-92
2022/05/22 08:21:04;;;;;;;8.27;7.40;;;;;;;;;;10102316;29;20415;-92
2022/05/22 08:26:08;;;;;;;9.90;7.70;;;;;;;;;;10103924;29;20420;-91
2022/05/22 08:31:18;;;;;;;8.52;7.50;;;;;;;;;;10103329;29;20527;-92
2022/05/22 08:36:24;;;;;;;11.02;7.57;;;;;;;;;;10098384;29;20429;-92
2022/05/22 08:41:30;;;;;;;10.95;7.90;;;;;;;;;;10103680;29;20429;-91
2022/05/22 08:46:39;;;;;;;8.85;8.00;;;;;;;;;;10099860;29;20496;-94
2022/05/22 08:51:46;;;;;;;8.85;7.82;;;;;;;;;;10099611;29;20429;-91
2022/05/22 09:02:27;;;;;;;9.75;8.45;;;;;;;;;;10099348;29;20403;-92
2022/05/22 09:07:41;;;;;;;9.82;8.20;;;;;;;;;;10098610;29;20448;-92
2022/05/22 09:12:59;;;;;;;10.77;9.10;;;;;;;;;;10099122;29;20983;-92
2022/05/22 09:18:05;;;;;;;11.40;8.27;;;;;;;;;;10099274;29;20979;-92
2022/05/22 09:23:22;;;;;;;11.53;8.10;;;;;;;;;;10104750;29;20514;-91
2022/05/22 09:28:32;;;;;;;9.73;7.65;;;;;;;;;;10109637;29;20434;-92
2022/05/22 09:33:43;;;;;;;9.77;8.07;;;;;;;;;;10106775;29;20512;-93
2022/05/22 09:39:08;;;;;;;9.50;7.60;;;;;;;;;;10107105;29;20515;-92
2022/05/22 09:44:30;;;;;;;8.70;7.72;;;;;;;;;;10106040;29;20500;-92
2022/05/22 09:49:44;;;;;;;10.03;7.60;;;;;;;;;;10106113;29;21239;-92
2022/05/22 09:55:06;;;;;;;9.57;7.85;;;;;;;;;;10106376;29;20469;-92
2022/05/22 10:00:17;;;;;;;8.20;7.30;;;;;;;;;;10106020;29;20459;-92
2022/05/22 10:05:32;;;;;;;9.27;7.30;;;;;;;;;;10106083;29;20428;-92
2022/05/22 10:10:47;;;;;;;10.23;7.90;;;;;;;;;;10108667;29;20444;-92
2022/05/22 10:16:06;;;;;;;9.10;8.18;;;;;;;;;;10103017;29;20454;-93
2022/05/22 10:21:19;;;;;;;6.88;6.20;;;;;;;;;;10105589;29;20917;-92
2022/05/22 10:26:47;;;;;;;8.32;6.72;;;;;;;;;;10108012;29;20851;-91
2022/05/22 10:31:58;;;;;;;8.93;6.43;;;;;;;;;;10101658;29;20446;-92
2022/05/22 10:37:13;;;;;;;8.30;6.82;;;;;;;;;;10103725;29;20486;-92
2022/05/22 10:47:40;;;;;;;7.20;6.60;;;;;;;;;;10104113;29;20407;-92
2022/05/22 10:52:42;;;;;;;7.97;6.82;;;;;;;;;;10104187;29;20877;-92
2022/05/22 10:57:55;;;;;;;7.80;6.77;;;;;;;;;;10107367;29;20450;-92
2022/05/22 11:02:57;;;;;;;7.10;6.32;;;;;;;;;;10103518;29;20885;-92
2022/05/22 11:08:01;;;;;;;7.37;6.67;;;;;;;;;;10103187;29;20505;-92
2022/05/22 11:13:08;;;;;;;8.02;6.82;;;;;;;;;;10103608;29;20478;-92
2022/05/22 11:18:12;;;;;;;7.63;6.80;;;;;;;;;;10102821;29;20770;-92
2022/05/22 11:23:30;;;;;;;7.57;6.77;;;;;;;;;;10103415;29;20917;-92
2022/05/22 11:28:48;;;;;;;7.60;6.45;;;;;;;;;;10104014;29;20445;-92
2022/05/22 11:34:05;;;;;;;7.22;5.93;;;;;;;;;;10104071;29;20542;-93
2022/05/22 11:39:34;;;;;;;7.03;6.43;;;;;;;;;;10102800;29;20449;-92
2022/05/22 11:44:54;;;;;;;7.03;6.25;;;;;;;;;;10103865;29;20979;-92
2022/05/22 11:50:05;;;;;;;7.37;6.03;;;;;;;;;;10102851;29;20421;-92
2022/05/22 11:55:15;;;;;;;7.05;5.90;;;;;;;;;;10130970;29;20437;-92
2022/05/22 12:00:24;;;;;;;8.70;6.53;;;;;;;;;;10136227;29;20461;-92
2022/05/22 12:05:38;;;;;;;6.87;6.27;;;;;;;;;;10123472;29;20921;-92
2022/05/22 12:10:45;;;;;;;6.93;6.23;;;;;;;;;;10107318;29;20491;-92
2022/05/22 12:15:58;;;;;;;8.27;6.32;;;;;;;;;;10100648;29;20441;-92
2022/05/22 12:21:09;;;;;;;9.35;5.93;;;;;;;;;;10100583;29;20465;-92
2022/05/22 12:26:13;;;;;;;7.43;5.93;;;;;;;;;;10100497;29;20547;-92
2022/05/22 12:31:26;;;;;;;7.10;6.13;;;;;;;;;;10098954;29;20440;-93
2022/05/22 12:36:30;;;;;;;6.97;6.28;;;;;;;;;;10101553;29;20455;-92
2022/05/22 12:41:57;;;;;;;6.95;6.25;;;;;;;;;;10099586;29;20449;-91
2022/05/22 12:47:01;;;;;;;7.10;6.30;;;;;;;;;;10101417;29;20496;-92
2022/05/22 12:52:06;;;;;;;7.27;6.30;;;;;;;;;;10099165;29;20438;-92
2022/05/22 12:57:19;;;;;;;7.65;6.82;;;;;;;;;;10102405;29;20949;-92
2022/05/22 13:02:45;;;;;;;7.63;6.93;;;;;;;;;;10103320;29;20850;-93
2022/05/22 13:07:47;;;;;;;7.72;6.78;;;;;;;;;;10094403;29;20458;-92
2022/05/22 13:12:56;;;;;;;7.40;6.70;;;;;;;;;;10101687;29;20558;-91
2022/05/22 13:18:15;;;;;;;10.07;7.15;;;;;;;;;;10099574;29;20731;-92
2022/05/22 13:23:38;;;;;;;7.53;6.57;;;;;;;;;;10098746;29;20424;-92
2022/05/22 13:28:57;;;;;;;7.80;7.00;;;;;;;;;;10101257;29;20826;-92
2022/05/22 13:34:08;;;;;;;8.03;6.20;;;;;;;;;;10098493;29;20452;-91
2022/05/22 13:39:22;;;;;;;7.95;7.15;;;;;;;;;;10102035;29;20426;-92
2022/05/22 13:44:49;;;;;;;8.13;7.33;;;;;;;;;;10099813;29;20938;-93
2022/05/22 13:55:39;;;;;;;9.13;7.70;;;;;;;;;;10099361;29;20435;-91
2022/05/22 14:00:43;;;;;;;8.77;7.97;;;;;;;;;;10099411;29;20442;-92
2022/05/22 14:05:52;;;;;;;9.10;8.20;;;;;;;;;;10098995;29;20511;-92
2022/05/22 14:10:58;;;;;;;8.63;7.60;;;;;;;;;;10107727;29;20426;-92
2022/05/22 14:16:02;;;;;;;12.23;7.60;;;;;;;;;;10105625;29;20525;-92
2022/05/22 14:21:09;;;;;;;9.40;7.40;;;;;;;;;;10103076;29;20450;-93
2022/05/22 14:26:19;;;;;;;8.57;7.50;;;;;;;;;;10105398;29;20858;-93
2022/05/22 14:31:22;;;;;;;8.73;7.40;;;;;;;;;;10103888;29;20966;-91
2022/05/22 14:36:25;;;;;;;9.02;7.72;;;;;;;;;;10103948;29;20979;-92
2022/05/22 14:41:30;;;;;;;7.33;6.47;;;;;;;;;;10106314;29;20413;-91
2022/05/22 14:46:45;;;;;;;7.25;6.50;;;;;;;;;;10103829;29;20775;-92
2022/05/22 14:51:53;;;;;;;7.47;6.80;;;;;;;;;;10104973;29;20441;-93
2022/05/22 14:56:58;;;;;;;7.30;6.55;;;;;;;;;;10107228;29;20458;-92
2022/05/22 15:02:03;;;;;;;9.05;7.13;;;;;;;;;;10104074;29;20478;-92
2022/05/22 15:07:21;;;;;;;7.63;6.80;;;;;;;;;;10103191;29;20513;-92
2022/05/22 15:12:30;;;;;;;9.05;6.80;;;;;;;;;;10106119;29;20496;-92
2022/05/22 15:17:34;;;;;;;7.97;7.15;;;;;;;;;;10102296;29;20425;-92
2022/05/22 15:28:15;;;;;;;7.87;7.17;;;;;;;;;;10104554;29;20413;-92
2022/05/22 15:33:31;;;;;;;10.50;8.00;;;;;;;;;;10102158;29;20445;-92
2022/05/22 15:38:37;;;;;;;9.57;8.48;;;;;;;;;;10104711;29;20685;-92
2022/05/22 15:43:43;;;;;;;8.30;7.60;;;;;;;;;;10102480;29;20913;-92
2022/05/22 15:54:08;;;;;;;9.65;8.15;;;;;;;;;;10101086;29;20425;-91
2022/05/22 15:59:17;;;;;;;9.63;8.63;;;;;;;;;;10100752;29;20756;-92
2022/05/22 16:04:20;;;;;;;9.82;8.82;;;;;;;;;;10097627;29;20419;-92
2022/05/22 16:09:25;;;;;;;9.55;8.60;;;;;;;;;;10103924;29;20498;-93
2022/05/22 16:14:27;;;;;;;11.57;8.68;;;;;;;;;;10100876;29;20495;-92
2022/05/22 16:19:35;;;;;;;10.20;9.10;;;;;;;;;;10100191;29;20458;-93
2022/05/22 16:24:47;;;;;;;11.60;9.52;;;;;;;;;;10101586;29;20496;-92
2022/05/22 16:29:49;;;;;;;14.73;9.43;;;;;;;;;;10098598;29;20421;-92
2022/05/22 16:34:54;;;;;;;11.10;10.07;;;;;;;;;;10099924;29;20999;-92
2022/05/22 16:39:58;;;;;;;13.32;10.35;;;;;;;;;;10101548;29;20835;-92
2022/05/22 16:44:59;;;;;;;10.80;9.70;;;;;;;;;;10100130;29;20465;-92
2022/05/22 16:55:22;;;;;;;10.45;9.45;;;;;;;;;;10106803;29;20482;-92
2022/05/22 17:00:32;;;;;;;9.63;8.73;;;;;;;;;;10099331;29;20429;-92
2022/05/22 17:05:37;;;;;;;10.83;9.73;;;;;;;;;;10099316;29;20457;-92
2022/05/22 17:10:41;;;;;;;10.50;9.50;;;;;;;;;;10101748;29;20499;-92
2022/05/22 17:15:50;;;;;;;11.13;9.40;;;;;;;;;;10099746;29;20441;-92
2022/05/22 17:20:53;;;;;;;9.20;8.30;;;;;;;;;;10099058;29;20411;-91
2022/05/22 17:25:57;;;;;;;8.43;6.75;;;;;;;;;;10104603;29;20435;-92
2022/05/22 17:30:59;;;;;;;11.18;6.55;;;;;;;;;;10099052;29;20521;-93
2022/05/22 17:36:02;;;;;;;8.43;6.73;;;;;;;;;;10098442;29;20434;-92
2022/05/22 17:41:07;;;;;;;9.25;6.65;;;;;;;;;;10099941;29;20512;-92
2022/05/22 17:46:08;;;;;;;7.97;6.57;;;;;;;;;;10106904;29;20721;-92
2022/05/22 17:51:12;;;;;;;7.00;6.40;;;;;;;;;;10106242;29;20852;-92
2022/05/22 17:56:15;;;;;;;7.10;6.43;;;;;;;;;;10115324;29;20435;-92
2022/05/22 18:01:17;;;;;;;7.72;6.90;;;;;;;;;;10106051;29;20506;-92
2022/05/22 18:06:19;;;;;;;9.32;6.97;;;;;;;;;;10106858;29;20488;-92
2022/05/22 18:16:42;;;;;;;8.27;7.43;;;;;;;;;;10106388;29;20427;-92
2022/05/22 18:21:45;;;;;;;8.45;7.25;;;;;;;;;;10106132;29;20419;-92
2022/05/22 18:26:53;;;;;;;8.27;7.47;;;;;;;;;;10106347;29;20524;-92
2022/05/22 18:31:55;;;;;;;7.82;7.13;;;;;;;;;;10105862;29;20552;-92
2022/05/22 18:36:57;;;;;;;10.07;8.00;;;;;;;;;;10105597;29;20442;-92
2022/05/22 18:42:04;;;;;;;9.10;8.20;;;;;;;;;;10111679;29;20417;-92
2022/05/22 18:47:06;;;;;;;12.23;8.73;;;;;;;;;;10105767;29;20428;-92
2022/05/22 18:52:08;;;;;;;10.70;7.95;;;;;;;;;;10105772;29;20413;-92
2022/05/22 18:57:14;;;;;;;9.93;8.90;;;;;;;;;;10105637;29;20497;-92
2022/05/22 19:02:17;;;;;;;10.17;9.03;;;;;;;;;;10109902;29;20445;-91
2022/05/22 19:07:18;;;;;;;9.83;8.77;;;;;;;;;;10104295;29;20550;-92
2022/05/22 19:12:26;;;;;;;10.75;8.82;;;;;;;;;;10107536;29;20451;-92
2022/05/22 19:17:31;;;;;;;9.35;8.43;;;;;;;;;;10105227;29;20508;-92
2022/05/22 19:22:33;;;;;;;10.27;8.70;;;;;;;;;;10104670;29;20492;-92
2022/05/22 19:27:40;;;;;;;10.30;8.48;;;;;;;;;;10104931;29;21305;-92
2022/05/22 19:32:42;;;;;;;9.82;8.43;;;;;;;;;;10103784;29;20435;-92
2022/05/22 19:37:45;;;;;;;9.82;8.82;;;;;;;;;;10106478;29;20527;-92
2022/05/22 19:48:13;;;;;;;10.52;8.80;;;;;;;;;;10103555;29;20405;-91
2022/05/22 19:53:15;;;;;;;12.70;10.10;;;;;;;;;;10102660;29;20413;-91
2022/05/22 19:58:38;;;;;;;12.52;10.40;;;;;;;;;;10107115;29;20469;-92
2022/05/22 20:03:45;;;;;;;13.55;10.65;;;;;;;;;;10105685;29;20783;-89
2022/05/22 20:08:49;;;;;;;14.50;11.43;;;;;;;;;;10104995;29;20479;-92
2022/05/22 20:13:52;;;;;;;10.90;9.90;;;;;;;;;;10103038;29;20445;-91
2022/05/22 20:18:56;;;;;;;11.27;10.18;;;;;;;;;;10102695;29;20449;-92
2022/05/22 20:23:58;;;;;;;12.15;10.85;;;;;;;;;;10104395;29;20464;-92
2022/05/22 20:29:02;;;;;;;12.63;11.05;;;;;;;;;;10103703;29;21255;-92
2022/05/22 20:34:04;;;;;;;12.65;11.32;;;;;;;;;;10103875;29;20521;-76
2022/05/22 20:39:07;;;;;;;12.13;10.48;;;;;;;;;;10145355;23;20442;-80
2022/05/22 20:44:18;;;;;;;14.07;10.80;;;;;;;;;;10409383;23;20444;-82
2022/05/22 20:49:19;;;;;;;12.37;11.13;;;;;;;;;;10191948;29;20417;-85
2022/05/22 20:54:21;;;;;;;15.90;13.40;;;;;;;;;;10198051;29;20430;-84
2022/05/22 20:59:27;;;;;;;16.10;14.40;;;;;;;;;;10189503;29;20453;-81
2022/05/22 21:04:29;;;;;;;19.48;15.52;;;;;;;;;;10206522;29;20500;-94
2022/05/22 21:09:32;;;;;;;19.70;17.60;;;;;;;;;;10202454;29;20438;-75
2022/05/22 21:14:37;;;;;;;21.83;17.73;;;;;;;;;;10197322;29;20462;-86
2022/05/22 21:19:39;;;;;;;21.15;18.95;;;;;;;;;;10193955;28;21277;-86
2022/05/22 21:30:01;;;;;;;23.52;20.83;;;;;;;;;;10192554;28;20458;-87
2022/05/22 21:35:04;;;;;;;23.80;21.30;;;;;;;;;;10195826;28;20510;-86
2022/05/22 21:40:08;;;;;;;23.10;20.77;;;;;;;;;;10196893;28;20495;-86
2022/05/22 21:45:13;;;;;;;27.40;22.67;;;;;;;;;;10188114;29;20414;-87
2022/05/22 21:50:16;;;;;;;24.90;22.33;;;;;;;;;;10191900;29;20425;-86
2022/05/22 21:55:18;;;;;;;23.80;21.47;;;;;;;;;;10203587;29;20944;-87
2022/05/22 22:00:45;;;;;;;25.17;22.53;;;;;;;;;;10206204;29;20942;-87
2022/05/22 22:05:47;;;;;;;26.17;23.40;;;;;;;;;;10206735;29;20921;-87
2022/05/22 22:10:49;;;;;;;26.23;23.60;;;;;;;;;;10199383;29;20929;-87
2022/05/22 22:15:53;;;;;;;28.57;25.67;;;;;;;;;;10203987;29;20516;-87
2022/05/22 22:20:54;;;;;;;29.17;26.33;;;;;;;;;;10205738;29;20983;-87
2022/05/22 22:25:56;;;;;;;29.35;26.17;;;;;;;;;;10206707;29;20996;-87
2022/05/22 22:31:00;;;;;;;29.25;26.33;;;;;;;;;;10197072;29;20494;-87
2022/05/22 22:36:02;;;;;;;30.90;27.75;;;;;;;;;;10201725;29;20441;-88
2022/05/22 22:41:09;;;;;;;29.73;26.83;;;;;;;;;;10196269;29;20498;-86
2022/05/22 22:46:12;;;;;;;29.90;26.88;;;;;;;;;;10199612;29;20532;-87
2022/05/22 22:51:14;;;;;;;30.20;27.23;;;;;;;;;;10204237;29;20518;-87
2022/05/22 23:01:37;;;;;;;34.33;30.92;;;;;;;;;;10200523;29;20414;-87
2022/05/22 23:06:39;;;;;;;35.73;31.83;;;;;;;;;;10201080;29;20713;-87
2022/05/22 23:11:40;;;;;;;35.47;31.97;;;;;;;;;;10197428;29;20422;-87
2022/05/22 23:16:44;;;;;;;34.33;30.83;;;;;;;;;;10202762;29;20434;-87
2022/05/22 23:21:46;;;;;;;35.35;31.67;;;;;;;;;;10202073;29;20414;-87
2022/05/22 23:26:48;;;;;;;33.70;30.40;;;;;;;;;;10199911;29;20410;-87
2022/05/22 23:31:51;;;;;;;34.20;30.60;;;;;;;;;;10203090;29;20417;-87
2022/05/22 23:36:54;;;;;;;34.53;30.93;;;;;;;;;;10203005;29;20517;-87
2022/05/22 23:41:58;;;;;;;34.80;31.30;;;;;;;;;;10200693;29;20424;-87
2022/05/22 23:47:02;;;;;;;32.80;29.45;;;;;;;;;;10198934;29;20402;-87
2022/05/22 23:52:06;;;;;;;31.88;28.33;;;;;;;;;;10201896;29;20422;-87
2022/05/22 23:57:08;;;;;;;32.38;28.98;;;;;;;;;;10200419;29;20444;-86
